sensor_id;sensor_type;location;lat;lon;timestamp;temperature;humidity
68943;DHT22;60852;52.190;4.422;2022-12-10T00:01:11;1.64;89.08
68943;DHT22;60852;52.190;4.422;2022-12-10T00:03:37;1.61;89.51
68943;DHT22;60852;52.190;4.422;2022-12-10T00:06:06;1.70;89.75
68943;DHT22;60852;52.190;4.422;2022-12-10T00:08:33;1.77;89.42
68943;DHT22;60852;52.190;4.422;2022-12-10T00:10:59;1.73;89.12
68943;DHT22;60852;52.190;4.422;2022-12-10T00:13:24;1.73;89.27
68943;DHT22;60852;52.190;4.422;2022-12-10T00:15:50;1.81;89.26
68943;DHT22;60852;52.190;4.422;2022-12-10T00:18:15;1.79;89.07
68943;DHT22;60852;52.190;4.422;2022-12-10T00:20:41;1.77;89.12
68943;DHT22;60852;52.190;4.422;2022-12-10T00:23:06;1.71;89.08
68943;DHT22;60852;52.190;4.422;2022-12-10T00:25:32;1.84;89.52
68943;DHT22;60852;52.190;4.422;2022-12-10T00:27:58;1.87;89.04
68943;DHT22;60852;52.190;4.422;2022-12-10T00:30:24;1.71;89.10
68943;DHT22;60852;52.190;4.422;2022-12-10T00:32:50;1.68;89.73
68943;DHT22;60852;52.190;4.422;2022-12-10T00:35:15;1.64;89.85
68943;DHT22;60852;52.190;4.422;2022-12-10T00:37:41;1.70;89.99
68943;DHT22;60852;52.190;4.422;2022-12-10T00:40:07;1.71;89.94
68943;DHT22;60852;52.190;4.422;2022-12-10T00:42:33;1.81;89.86
68943;DHT22;60852;52.190;4.422;2022-12-10T00:44:58;1.85;89.81
68943;DHT22;60852;52.190;4.422;2022-12-10T00:47:24;1.95;89.73
68943;DHT22;60852;52.190;4.422;2022-12-10T00:49:49;1.95;89.27
68943;DHT22;60852;52.190;4.422;2022-12-10T00:52:15;2.02;89.48
68943;DHT22;60852;52.190;4.422;2022-12-10T00:54:40;2.21;89.45
68943;DHT22;60852;52.190;4.422;2022-12-10T00:57:06;2.25;88.79
68943;DHT22;60852;52.190;4.422;2022-12-10T00:59:31;2.29;88.65
68943;DHT22;60852;52.190;4.422;2022-12-10T01:01:57;2.30;88.49
68943;DHT22;60852;52.190;4.422;2022-12-10T01:04:22;2.29;88.12
68943;DHT22;60852;52.190;4.422;2022-12-10T01:06:51;2.25;88.09
68943;DHT22;60852;52.190;4.422;2022-12-10T01:09:21;2.22;88.07
68943;DHT22;60852;52.190;4.422;2022-12-10T01:11:48;2.22;87.79
68943;DHT22;60852;52.190;4.422;2022-12-10T01:14:17;2.19;87.82
68943;DHT22;60852;52.190;4.422;2022-12-10T01:16:44;2.18;87.62
68943;DHT22;60852;52.190;4.422;2022-12-10T01:19:10;2.15;87.77
68943;DHT22;60852;52.190;4.422;2022-12-10T01:21:36;2.18;87.93
68943;DHT22;60852;52.190;4.422;2022-12-10T01:24:02;2.22;87.73
68943;DHT22;60852;52.190;4.422;2022-12-10T01:26:31;2.29;87.81
68943;DHT22;60852;52.190;4.422;2022-12-10T01:28:58;2.32;87.57
68943;DHT22;60852;52.190;4.422;2022-12-10T01:31:27;2.09;87.18
68943;DHT22;60852;52.190;4.422;2022-12-10T01:33:53;1.99;87.80
68943;DHT22;60852;52.190;4.422;2022-12-10T01:36:22;1.99;88.00
68943;DHT22;60852;52.190;4.422;2022-12-10T01:38:47;1.91;87.90
68943;DHT22;60852;52.190;4.422;2022-12-10T01:41:22;1.85;88.14
68943;DHT22;60852;52.190;4.422;2022-12-10T01:46:17;1.97;88.35
68943;DHT22;60852;52.190;4.422;2022-12-10T01:48:43;1.94;87.99
68943;DHT22;60852;52.190;4.422;2022-12-10T01:51:11;2.05;88.30
68943;DHT22;60852;52.190;4.422;2022-12-10T01:53:37;1.99;88.07
68943;DHT22;60852;52.190;4.422;2022-12-10T01:56:03;2.08;88.17
68943;DHT22;60852;52.190;4.422;2022-12-10T01:58:29;2.02;88.00
68943;DHT22;60852;52.190;4.422;2022-12-10T02:01:11;1.95;88.26
68943;DHT22;60852;52.190;4.422;2022-12-10T02:06:58;2.07;88.07
68943;DHT22;60852;52.190;4.422;2022-12-10T02:09:34;2.11;88.24
68943;DHT22;60852;52.190;4.422;2022-12-10T02:12:21;2.12;88.00
68943;DHT22;60852;52.190;4.422;2022-12-10T02:17:36;2.12;88.05
68943;DHT22;60852;52.190;4.422;2022-12-10T02:20:22;2.17;88.00
68943;DHT22;60852;52.190;4.422;2022-12-10T02:22:54;2.25;88.10
68943;DHT22;60852;52.190;4.422;2022-12-10T02:25:49;2.28;87.76
68943;DHT22;60852;52.190;4.422;2022-12-10T02:28:41;2.09;87.97
68943;DHT22;60852;52.190;4.422;2022-12-10T02:31:12;2.08;88.33
68943;DHT22;60852;52.190;4.422;2022-12-10T02:33:46;2.18;88.27
68943;DHT22;60852;52.190;4.422;2022-12-10T02:36:14;2.11;88.25
68943;DHT22;60852;52.190;4.422;2022-12-10T02:38:43;2.15;88.27
68943;DHT22;60852;52.190;4.422;2022-12-10T02:41:16;2.18;88.15
68943;DHT22;60852;52.190;4.422;2022-12-10T02:43:46;2.30;88.29
68943;DHT22;60852;52.190;4.422;2022-12-10T02:46:13;2.38;88.25
68943;DHT22;60852;52.190;4.422;2022-12-10T02:48:40;2.52;88.05
68943;DHT22;60852;52.190;4.422;2022-12-10T02:51:06;2.60;87.98
68943;DHT22;60852;52.190;4.422;2022-12-10T02:53:32;2.61;87.32
68943;DHT22;60852;52.190;4.422;2022-12-10T02:59:08;2.53;87.60
68943;DHT22;60852;52.190;4.422;2022-12-10T03:04:25;2.64;87.66
68943;DHT22;60852;52.190;4.422;2022-12-10T03:07:01;2.66;87.39
68943;DHT22;60852;52.190;4.422;2022-12-10T03:09:48;2.70;87.36
68943;DHT22;60852;52.190;4.422;2022-12-10T03:12:48;2.73;87.20
68943;DHT22;60852;52.190;4.422;2022-12-10T03:15:14;2.70;87.12
68943;DHT22;60852;52.190;4.422;2022-12-10T03:17:42;2.72;87.40
68943;DHT22;60852;52.190;4.422;2022-12-10T03:20:13;2.76;87.18
68943;DHT22;60852;52.190;4.422;2022-12-10T03:22:44;2.73;86.76
68943;DHT22;60852;52.190;4.422;2022-12-10T03:25:14;2.49;86.84
68943;DHT22;60852;52.190;4.422;2022-12-10T03:27:41;2.39;87.36
68943;DHT22;60852;52.190;4.422;2022-12-10T03:30:07;2.45;87.47
68943;DHT22;60852;52.190;4.422;2022-12-10T03:32:34;2.32;87.36
68943;DHT22;60852;52.190;4.422;2022-12-10T03:35:01;2.40;87.89
68943;DHT22;60852;52.190;4.422;2022-12-10T03:37:29;2.56;87.95
68943;DHT22;60852;52.190;4.422;2022-12-10T03:39:56;2.50;87.20
68943;DHT22;60852;52.190;4.422;2022-12-10T03:42:23;2.43;87.53
68943;DHT22;60852;52.190;4.422;2022-12-10T03:44:50;2.52;87.62
68943;DHT22;60852;52.190;4.422;2022-12-10T03:47:18;2.57;87.57
68943;DHT22;60852;52.190;4.422;2022-12-10T03:49:43;2.63;87.38
68943;DHT22;60852;52.190;4.422;2022-12-10T03:52:09;2.66;87.42
68943;DHT22;60852;52.190;4.422;2022-12-10T03:54:35;2.69;87.15
68943;DHT22;60852;52.190;4.422;2022-12-10T03:57:01;2.59;86.72
68943;DHT22;60852;52.190;4.422;2022-12-10T03:59:27;2.33;87.04
68943;DHT22;60852;52.190;4.422;2022-12-10T04:01:52;2.32;87.40
68943;DHT22;60852;52.190;4.422;2022-12-10T04:04:18;2.26;87.60
68943;DHT22;60852;52.190;4.422;2022-12-10T04:06:43;2.22;87.81
68943;DHT22;60852;52.190;4.422;2022-12-10T04:09:11;2.08;87.97
68943;DHT22;60852;52.190;4.422;2022-12-10T04:11:37;2.08;88.43
68943;DHT22;60852;52.190;4.422;2022-12-10T04:14:02;2.08;88.65
68943;DHT22;60852;52.190;4.422;2022-12-10T04:16:46;2.05;88.66
68943;DHT22;60852;52.190;4.422;2022-12-10T04:19:19;2.15;89.00
68943;DHT22;60852;52.190;4.422;2022-12-10T04:21:45;2.21;88.60
68943;DHT22;60852;52.190;4.422;2022-12-10T04:24:31;2.25;88.49
68943;DHT22;60852;52.190;4.422;2022-12-10T04:27:20;2.18;88.31
68943;DHT22;60852;52.190;4.422;2022-12-10T04:29:46;1.99;88.31
68943;DHT22;60852;52.190;4.422;2022-12-10T04:32:12;1.94;88.79
68943;DHT22;60852;52.190;4.422;2022-12-10T04:34:38;1.93;88.98
68943;DHT22;60852;52.190;4.422;2022-12-10T04:37:04;1.97;89.08
68943;DHT22;60852;52.190;4.422;2022-12-10T04:39:30;2.01;89.17
68943;DHT22;60852;52.190;4.422;2022-12-10T04:41:56;2.02;89.04
68943;DHT22;60852;52.190;4.422;2022-12-10T04:44:21;1.93;88.96
68943;DHT22;60852;52.190;4.422;2022-12-10T04:46:47;1.99;89.01
68943;DHT22;60852;52.190;4.422;2022-12-10T04:49:14;1.97;88.98
68943;DHT22;60852;52.190;4.422;2022-12-10T04:51:40;1.98;89.19
68943;DHT22;60852;52.190;4.422;2022-12-10T04:54:06;1.98;89.04
68943;DHT22;60852;52.190;4.422;2022-12-10T04:56:32;2.02;89.28
68943;DHT22;60852;52.190;4.422;2022-12-10T04:58:58;2.01;89.13
68943;DHT22;60852;52.190;4.422;2022-12-10T05:01:24;1.94;89.09
68943;DHT22;60852;52.190;4.422;2022-12-10T05:03:49;1.98;89.49
68943;DHT22;60852;52.190;4.422;2022-12-10T05:06:16;2.14;89.45
68943;DHT22;60852;52.190;4.422;2022-12-10T05:08:42;2.21;89.16
68943;DHT22;60852;52.190;4.422;2022-12-10T05:11:14;2.28;89.17
68943;DHT22;60852;52.190;4.422;2022-12-10T05:13:41;2.29;88.64
68943;DHT22;60852;52.190;4.422;2022-12-10T05:16:09;2.19;88.63
68943;DHT22;60852;52.190;4.422;2022-12-10T05:18:36;2.19;88.68
68943;DHT22;60852;52.190;4.422;2022-12-10T05:21:04;2.22;88.75
68943;DHT22;60852;52.190;4.422;2022-12-10T05:23:31;2.21;88.62
68943;DHT22;60852;52.190;4.422;2022-12-10T05:26:03;2.24;88.83
68943;DHT22;60852;52.190;4.422;2022-12-10T05:28:31;2.32;88.85
68943;DHT22;60852;52.190;4.422;2022-12-10T05:30:57;2.35;88.63
68943;DHT22;60852;52.190;4.422;2022-12-10T05:33:23;2.18;88.35
68943;DHT22;60852;52.190;4.422;2022-12-10T05:36:01;2.26;88.58
68943;DHT22;60852;52.190;4.422;2022-12-10T05:38:29;2.19;88.38
68943;DHT22;60852;52.190;4.422;2022-12-10T05:40:55;2.14;88.38
68943;DHT22;60852;52.190;4.422;2022-12-10T05:43:25;2.22;88.94
68943;DHT22;60852;52.190;4.422;2022-12-10T05:45:50;2.21;88.53
68943;DHT22;60852;52.190;4.422;2022-12-10T05:48:16;2.28;88.52
68943;DHT22;60852;52.190;4.422;2022-12-10T05:50:42;2.29;88.56
68943;DHT22;60852;52.190;4.422;2022-12-10T05:53:08;2.35;88.62
68943;DHT22;60852;52.190;4.422;2022-12-10T05:55:34;2.40;88.46
68943;DHT22;60852;52.190;4.422;2022-12-10T05:58:00;2.33;88.07
68943;DHT22;60852;52.190;4.422;2022-12-10T06:00:27;2.29;88.25
68943;DHT22;60852;52.190;4.422;2022-12-10T06:02:52;2.32;88.18
68943;DHT22;60852;52.190;4.422;2022-12-10T06:05:18;2.38;88.41
68943;DHT22;60852;52.190;4.422;2022-12-10T06:07:44;2.42;87.91
68943;DHT22;60852;52.190;4.422;2022-12-10T06:10:10;2.18;87.32
68943;DHT22;60852;52.190;4.422;2022-12-10T06:12:36;2.07;88.06
68943;DHT22;60852;52.190;4.422;2022-12-10T06:15:03;2.09;88.22
68943;DHT22;60852;52.190;4.422;2022-12-10T06:17:29;2.22;88.33
68943;DHT22;60852;52.190;4.422;2022-12-10T06:19:55;2.24;87.90
68943;DHT22;60852;52.190;4.422;2022-12-10T06:22:20;2.11;88.08
68943;DHT22;60852;52.190;4.422;2022-12-10T06:24:46;2.11;88.21
68943;DHT22;60852;52.190;4.422;2022-12-10T06:27:11;2.14;88.15
68943;DHT22;60852;52.190;4.422;2022-12-10T06:29:36;2.15;88.19
68943;DHT22;60852;52.190;4.422;2022-12-10T06:32:02;2.17;88.11
68943;DHT22;60852;52.190;4.422;2022-12-10T06:34:28;2.17;88.01
68943;DHT22;60852;52.190;4.422;2022-12-10T06:36:53;2.19;88.14
68943;DHT22;60852;52.190;4.422;2022-12-10T06:39:18;2.22;87.79
68943;DHT22;60852;52.190;4.422;2022-12-10T06:41:44;2.18;87.79
68943;DHT22;60852;52.190;4.422;2022-12-10T06:44:12;2.21;87.92
68943;DHT22;60852;52.190;4.422;2022-12-10T06:46:39;2.26;87.90
68943;DHT22;60852;52.190;4.422;2022-12-10T06:49:06;2.29;87.74
68943;DHT22;60852;52.190;4.422;2022-12-10T06:51:32;2.26;87.66
68943;DHT22;60852;52.190;4.422;2022-12-10T06:53:57;2.29;87.64
68943;DHT22;60852;52.190;4.422;2022-12-10T06:56:23;2.29;87.46
68943;DHT22;60852;52.190;4.422;2022-12-10T06:58:49;2.28;87.55
68943;DHT22;60852;52.190;4.422;2022-12-10T07:01:18;2.30;87.47
68943;DHT22;60852;52.190;4.422;2022-12-10T07:03:51;2.30;87.44
68943;DHT22;60852;52.190;4.422;2022-12-10T07:06:18;2.30;87.41
68943;DHT22;60852;52.190;4.422;2022-12-10T07:08:44;2.30;87.46
68943;DHT22;60852;52.190;4.422;2022-12-10T07:11:13;2.30;87.25
68943;DHT22;60852;52.190;4.422;2022-12-10T07:13:39;2.24;87.34
68943;DHT22;60852;52.190;4.422;2022-12-10T07:18:38;2.24;87.53
68943;DHT22;60852;52.190;4.422;2022-12-10T07:21:15;2.29;87.71
68943;DHT22;60852;52.190;4.422;2022-12-10T07:23:41;2.36;87.69
68943;DHT22;60852;52.190;4.422;2022-12-10T07:26:07;2.40;87.60
68943;DHT22;60852;52.190;4.422;2022-12-10T07:28:33;2.40;87.34
68943;DHT22;60852;52.190;4.422;2022-12-10T07:31:05;2.46;87.30
68943;DHT22;60852;52.190;4.422;2022-12-10T07:33:31;2.49;87.18
68943;DHT22;60852;52.190;4.422;2022-12-10T07:35:57;2.46;87.00
68943;DHT22;60852;52.190;4.422;2022-12-10T07:38:23;2.36;86.91
68943;DHT22;60852;52.190;4.422;2022-12-10T07:40:50;2.35;87.28
68943;DHT22;60852;52.190;4.422;2022-12-10T07:43:15;2.30;87.33
68943;DHT22;60852;52.190;4.422;2022-12-10T07:45:41;2.30;87.44
68943;DHT22;60852;52.190;4.422;2022-12-10T07:48:06;2.29;87.42
68943;DHT22;60852;52.190;4.422;2022-12-10T07:50:32;2.36;87.50
68943;DHT22;60852;52.190;4.422;2022-12-10T07:52:58;2.46;87.56
68943;DHT22;60852;52.190;4.422;2022-12-10T07:55:23;2.50;87.53
68943;DHT22;60852;52.190;4.422;2022-12-10T07:57:48;2.53;87.31
68943;DHT22;60852;52.190;4.422;2022-12-10T08:00:14;2.61;87.26
68943;DHT22;60852;52.190;4.422;2022-12-10T08:02:40;2.61;87.13
68943;DHT22;60852;52.190;4.422;2022-12-10T08:05:05;2.66;87.24
68943;DHT22;60852;52.190;4.422;2022-12-10T08:07:32;2.69;87.15
68943;DHT22;60852;52.190;4.422;2022-12-10T08:09:58;2.69;86.97
68943;DHT22;60852;52.190;4.422;2022-12-10T08:12:23;2.70;86.95
68943;DHT22;60852;52.190;4.422;2022-12-10T08:14:49;2.72;86.75
68943;DHT22;60852;52.190;4.422;2022-12-10T08:17:14;2.69;86.86
68943;DHT22;60852;52.190;4.422;2022-12-10T08:19:39;2.64;86.80
68943;DHT22;60852;52.190;4.422;2022-12-10T08:22:05;2.64;86.97
68943;DHT22;60852;52.190;4.422;2022-12-10T08:24:30;2.63;86.93
68943;DHT22;60852;52.190;4.422;2022-12-10T08:26:56;2.61;86.72
68943;DHT22;60852;52.190;4.422;2022-12-10T08:29:21;2.61;86.76
68943;DHT22;60852;52.190;4.422;2022-12-10T08:31:47;2.56;86.97
68943;DHT22;60852;52.190;4.422;2022-12-10T08:34:15;2.56;86.98
68943;DHT22;60852;52.190;4.422;2022-12-10T08:36:41;2.53;86.82
68943;DHT22;60852;52.190;4.422;2022-12-10T08:39:07;2.57;87.02
68943;DHT22;60852;52.190;4.422;2022-12-10T08:41:32;2.59;86.95
68943;DHT22;60852;52.190;4.422;2022-12-10T08:43:58;2.60;86.95
68943;DHT22;60852;52.190;4.422;2022-12-10T08:46:23;2.60;86.73
68943;DHT22;60852;52.190;4.422;2022-12-10T08:48:51;2.61;86.75
68943;DHT22;60852;52.190;4.422;2022-12-10T08:51:19;2.67;86.79
68943;DHT22;60852;52.190;4.422;2022-12-10T08:53:45;2.69;86.50
68943;DHT22;60852;52.190;4.422;2022-12-10T08:56:11;2.67;86.47
68943;DHT22;60852;52.190;4.422;2022-12-10T08:58:38;2.67;86.83
68943;DHT22;60852;52.190;4.422;2022-12-10T09:01:09;2.67;86.79
68943;DHT22;60852;52.190;4.422;2022-12-10T09:03:35;2.75;86.80
68943;DHT22;60852;52.190;4.422;2022-12-10T09:06:07;2.69;86.76
68943;DHT22;60852;52.190;4.422;2022-12-10T09:08:34;2.67;87.06
68943;DHT22;60852;52.190;4.422;2022-12-10T09:11:12;2.70;86.85
68943;DHT22;60852;52.190;4.422;2022-12-10T09:13:38;2.72;86.89
68943;DHT22;60852;52.190;4.422;2022-12-10T09:16:04;2.69;86.92
68943;DHT22;60852;52.190;4.422;2022-12-10T09:18:30;2.79;87.01
68943;DHT22;60852;52.190;4.422;2022-12-10T09:20:56;2.81;86.92
68943;DHT22;60852;52.190;4.422;2022-12-10T09:23:22;2.87;86.87
68943;DHT22;60852;52.190;4.422;2022-12-10T09:25:48;2.83;86.79
68943;DHT22;60852;52.190;4.422;2022-12-10T09:28:14;2.77;86.91
68943;DHT22;60852;52.190;4.422;2022-12-10T09:30:39;2.72;87.04
68943;DHT22;60852;52.190;4.422;2022-12-10T09:33:05;2.79;87.06
68943;DHT22;60852;52.190;4.422;2022-12-10T09:35:30;2.84;86.95
68943;DHT22;60852;52.190;4.422;2022-12-10T09:37:56;2.81;86.74
68943;DHT22;60852;52.190;4.422;2022-12-10T09:40:32;2.81;86.75
68943;DHT22;60852;52.190;4.422;2022-12-10T09:48:32;2.69;87.52
68943;DHT22;60852;52.190;4.422;2022-12-10T09:51:21;2.64;87.39
68943;DHT22;60852;52.190;4.422;2022-12-10T09:53:51;2.56;87.32
68943;DHT22;60852;52.190;4.422;2022-12-10T09:56:33;2.67;87.66
68943;DHT22;60852;52.190;4.422;2022-12-10T09:59:03;2.70;87.03
68943;DHT22;60852;52.190;4.422;2022-12-10T10:01:34;2.72;86.80
68943;DHT22;60852;52.190;4.422;2022-12-10T10:03:59;2.61;86.97
68943;DHT22;60852;52.190;4.422;2022-12-10T10:06:27;2.63;87.26
68943;DHT22;60852;52.190;4.422;2022-12-10T10:08:57;2.77;87.16
68943;DHT22;60852;52.190;4.422;2022-12-10T10:11:28;2.64;86.67
68943;DHT22;60852;52.190;4.422;2022-12-10T10:13:58;2.63;87.21
68943;DHT22;60852;52.190;4.422;2022-12-10T10:16:30;2.76;87.17
68943;DHT22;60852;52.190;4.422;2022-12-10T10:21:38;2.81;87.03
68943;DHT22;60852;52.190;4.422;2022-12-10T10:24:05;2.90;86.76
68943;DHT22;60852;52.190;4.422;2022-12-10T10:26:32;2.93;86.59
68943;DHT22;60852;52.190;4.422;2022-12-10T10:29:05;3.00;86.61
68943;DHT22;60852;52.190;4.422;2022-12-10T10:31:33;2.80;86.48
68943;DHT22;60852;52.190;4.422;2022-12-10T10:34:04;2.72;86.57
68943;DHT22;60852;52.190;4.422;2022-12-10T10:36:33;2.60;87.06
68943;DHT22;60852;52.190;4.422;2022-12-10T10:41:52;2.72;86.99
68943;DHT22;60852;52.190;4.422;2022-12-10T10:44:22;2.69;87.17
68943;DHT22;60852;52.190;4.422;2022-12-10T10:46:51;2.80;87.22
68943;DHT22;60852;52.190;4.422;2022-12-10T10:49:29;2.94;87.05
68943;DHT22;60852;52.190;4.422;2022-12-10T10:52:06;3.08;86.94
68943;DHT22;60852;52.190;4.422;2022-12-10T10:54:38;3.24;86.67
68943;DHT22;60852;52.190;4.422;2022-12-10T10:57:24;3.27;86.45
68943;DHT22;60852;52.190;4.422;2022-12-10T10:59:56;3.27;86.33
68943;DHT22;60852;52.190;4.422;2022-12-10T11:02:37;3.36;86.18
68943;DHT22;60852;52.190;4.422;2022-12-10T11:05:22;3.42;86.12
68943;DHT22;60852;52.190;4.422;2022-12-10T11:08:00;3.52;85.72
68943;DHT22;60852;52.190;4.422;2022-12-10T11:10:28;3.49;85.73
68943;DHT22;60852;52.190;4.422;2022-12-10T11:13:03;3.38;85.78
68943;DHT22;60852;52.190;4.422;2022-12-10T11:18:00;3.48;86.22
68943;DHT22;60852;52.190;4.422;2022-12-10T11:20:33;3.42;86.37
68943;DHT22;60852;52.190;4.422;2022-12-10T11:23:08;3.40;86.34
68943;DHT22;60852;52.190;4.422;2022-12-10T11:31:03;3.60;85.77
68943;DHT22;60852;52.190;4.422;2022-12-10T11:42:13;3.58;85.48
68943;DHT22;60852;52.190;4.422;2022-12-10T11:44:50;3.31;85.76
68943;DHT22;60852;52.190;4.422;2022-12-10T11:50:27;3.21;85.81
68943;DHT22;60852;52.190;4.422;2022-12-10T11:53:26;3.09;86.67
68943;DHT22;60852;52.190;4.422;2022-12-10T11:56:21;3.19;87.13
68943;DHT22;60852;52.190;4.422;2022-12-10T12:04:06;3.39;86.30
68943;DHT22;60852;52.190;4.422;2022-12-10T12:09:42;3.48;86.14
68943;DHT22;60852;52.190;4.422;2022-12-10T12:12:23;3.36;85.86
68943;DHT22;60852;52.190;4.422;2022-12-10T12:15:01;3.39;86.39
68943;DHT22;60852;52.190;4.422;2022-12-10T12:17:43;3.17;86.27
68943;DHT22;60852;52.190;4.422;2022-12-10T12:26:00;3.05;87.10
68943;DHT22;60852;52.190;4.422;2022-12-10T12:28:40;3.03;87.50
68943;DHT22;60852;52.190;4.422;2022-12-10T12:31:18;3.12;87.64
68943;DHT22;60852;52.190;4.422;2022-12-10T12:33:52;3.29;87.84
68943;DHT22;60852;52.190;4.422;2022-12-10T12:36:24;3.45;87.34
68943;DHT22;60852;52.190;4.422;2022-12-10T12:42:33;3.60;86.74
68943;DHT22;60852;52.190;4.422;2022-12-10T12:45:11;3.66;86.52
68943;DHT22;60852;52.190;4.422;2022-12-10T12:53:16;3.45;86.38
68943;DHT22;60852;52.190;4.422;2022-12-10T13:03:58;3.56;86.22
68943;DHT22;60852;52.190;4.422;2022-12-10T13:06:32;3.62;86.59
68943;DHT22;60852;52.190;4.422;2022-12-10T13:14:34;3.56;85.87
68943;DHT22;60852;52.190;4.422;2022-12-10T13:17:08;3.39;86.48
68943;DHT22;60852;52.190;4.422;2022-12-10T13:19:34;3.46;86.84
68943;DHT22;60852;52.190;4.422;2022-12-10T13:35:18;3.42;87.03
68943;DHT22;60852;52.190;4.422;2022-12-10T13:40:23;3.54;86.70
68943;DHT22;60852;52.190;4.422;2022-12-10T13:43:20;3.46;86.67
68943;DHT22;60852;52.190;4.422;2022-12-10T13:46:32;3.58;87.05
68943;DHT22;60852;52.190;4.422;2022-12-10T13:49:00;3.70;86.74
68943;DHT22;60852;52.190;4.422;2022-12-10T13:57:26;3.67;86.75
68943;DHT22;60852;52.190;4.422;2022-12-10T14:00:16;3.62;86.87
68943;DHT22;60852;52.190;4.422;2022-12-10T14:08:26;3.80;86.64
68943;DHT22;60852;52.190;4.422;2022-12-10T14:10:53;3.85;86.71
68943;DHT22;60852;52.190;4.422;2022-12-10T14:13:31;3.93;86.67
68943;DHT22;60852;52.190;4.422;2022-12-10T14:16:00;4.01;86.66
68943;DHT22;60852;52.190;4.422;2022-12-10T14:18:29;4.07;86.31
68943;DHT22;60852;52.190;4.422;2022-12-10T14:20:56;4.06;86.09
68943;DHT22;60852;52.190;4.422;2022-12-10T14:23:30;4.00;85.92
68943;DHT22;60852;52.190;4.422;2022-12-10T14:26:17;3.98;86.04
68943;DHT22;60852;52.190;4.422;2022-12-10T14:28:54;3.94;85.84
68943;DHT22;60852;52.190;4.422;2022-12-10T14:31:27;3.98;86.00
68943;DHT22;60852;52.190;4.422;2022-12-10T14:33:59;3.98;85.93
68943;DHT22;60852;52.190;4.422;2022-12-10T14:36:37;4.01;85.98
68943;DHT22;60852;52.190;4.422;2022-12-10T14:39:14;3.98;85.93
68943;DHT22;60852;52.190;4.422;2022-12-10T14:41:42;4.00;85.95
68943;DHT22;60852;52.190;4.422;2022-12-10T14:44:14;4.01;86.00
68943;DHT22;60852;52.190;4.422;2022-12-10T14:46:40;3.96;85.61
68943;DHT22;60852;52.190;4.422;2022-12-10T14:49:16;3.93;85.89
68943;DHT22;60852;52.190;4.422;2022-12-10T14:51:42;3.91;85.95
68943;DHT22;60852;52.190;4.422;2022-12-10T14:54:27;3.87;85.98
68943;DHT22;60852;52.190;4.422;2022-12-10T14:56:55;3.87;85.99
68943;DHT22;60852;52.190;4.422;2022-12-10T14:59:26;3.87;85.94
68943;DHT22;60852;52.190;4.422;2022-12-10T15:01:59;3.91;86.03
68943;DHT22;60852;52.190;4.422;2022-12-10T15:04:38;3.93;85.95
68943;DHT22;60852;52.190;4.422;2022-12-10T15:07:11;3.98;85.79
68943;DHT22;60852;52.190;4.422;2022-12-10T15:09:38;3.96;85.66
68943;DHT22;60852;52.190;4.422;2022-12-10T15:12:03;3.96;85.60
68943;DHT22;60852;52.190;4.422;2022-12-10T15:14:30;3.93;85.55
68943;DHT22;60852;52.190;4.422;2022-12-10T15:16:56;3.89;85.49
68943;DHT22;60852;52.190;4.422;2022-12-10T15:19:32;3.90;85.46
68943;DHT22;60852;52.190;4.422;2022-12-10T15:24:42;3.87;85.52
68943;DHT22;60852;52.190;4.422;2022-12-10T15:27:22;3.85;85.72
68943;DHT22;60852;52.190;4.422;2022-12-10T15:29:49;3.79;85.66
68943;DHT22;60852;52.190;4.422;2022-12-10T15:32:26;3.79;85.82
68943;DHT22;60852;52.190;4.422;2022-12-10T15:39:49;3.82;86.07
68943;DHT22;60852;52.190;4.422;2022-12-10T15:47:46;3.94;85.95
68943;DHT22;60852;52.190;4.422;2022-12-10T15:50:12;3.93;85.81
68943;DHT22;60852;52.190;4.422;2022-12-10T15:52:38;3.91;85.99
68943;DHT22;60852;52.190;4.422;2022-12-10T15:55:04;3.93;85.96
68943;DHT22;60852;52.190;4.422;2022-12-10T15:57:33;3.98;86.12
68943;DHT22;60852;52.190;4.422;2022-12-10T16:00:03;4.03;86.12
68943;DHT22;60852;52.190;4.422;2022-12-10T16:02:49;4.07;86.13
68943;DHT22;60852;52.190;4.422;2022-12-10T16:05:17;4.00;85.87
68943;DHT22;60852;52.190;4.422;2022-12-10T16:07:45;3.93;85.90
68943;DHT22;60852;52.190;4.422;2022-12-10T16:10:15;3.89;86.33
68943;DHT22;60852;52.190;4.422;2022-12-10T16:12:41;3.90;86.27
68943;DHT22;60852;52.190;4.422;2022-12-10T16:15:17;3.89;86.18
68943;DHT22;60852;52.190;4.422;2022-12-10T16:17:43;3.87;86.41
68943;DHT22;60852;52.190;4.422;2022-12-10T16:20:27;3.89;86.39
68943;DHT22;60852;52.190;4.422;2022-12-10T16:22:54;3.93;86.31
68943;DHT22;60852;52.190;4.422;2022-12-10T16:25:22;3.91;86.22
68943;DHT22;60852;52.190;4.422;2022-12-10T16:27:49;3.80;86.60
68943;DHT22;60852;52.190;4.422;2022-12-10T16:32:46;3.89;86.60
68943;DHT22;60852;52.190;4.422;2022-12-10T16:35:12;3.87;86.83
68943;DHT22;60852;52.190;4.422;2022-12-10T16:37:46;3.83;86.84
68943;DHT22;60852;52.190;4.422;2022-12-10T16:40:15;3.83;86.93
68943;DHT22;60852;52.190;4.422;2022-12-10T16:42:42;3.91;86.95
68943;DHT22;60852;52.190;4.422;2022-12-10T16:47:39;4.03;86.57
68943;DHT22;60852;52.190;4.422;2022-12-10T16:50:05;4.04;86.34
68943;DHT22;60852;52.190;4.422;2022-12-10T16:52:31;4.04;86.06
68943;DHT22;60852;52.190;4.422;2022-12-10T16:54:56;4.01;86.09
68943;DHT22;60852;52.190;4.422;2022-12-10T16:57:22;4.00;85.96
68943;DHT22;60852;52.190;4.422;2022-12-10T16:59:47;4.01;86.01
68943;DHT22;60852;52.190;4.422;2022-12-10T17:02:17;4.03;85.85
68943;DHT22;60852;52.190;4.422;2022-12-10T17:04:44;4.07;85.83
68943;DHT22;60852;52.190;4.422;2022-12-10T17:07:10;4.08;85.76
68943;DHT22;60852;52.190;4.422;2022-12-10T17:09:36;4.11;85.68
68943;DHT22;60852;52.190;4.422;2022-12-10T17:12:02;4.10;85.61
68943;DHT22;60852;52.190;4.422;2022-12-10T17:14:32;4.16;85.48
68943;DHT22;60852;52.190;4.422;2022-12-10T17:17:00;4.17;85.41
68943;DHT22;60852;52.190;4.422;2022-12-10T17:19:32;4.20;85.33
68943;DHT22;60852;52.190;4.422;2022-12-10T17:21:58;4.22;85.19
68943;DHT22;60852;52.190;4.422;2022-12-10T17:24:24;4.20;85.25
68943;DHT22;60852;52.190;4.422;2022-12-10T17:26:51;4.25;85.30
68943;DHT22;60852;52.190;4.422;2022-12-10T17:29:28;4.27;85.21
68943;DHT22;60852;52.190;4.422;2022-12-10T17:31:54;4.31;85.18
68943;DHT22;60852;52.190;4.422;2022-12-10T17:34:20;4.28;85.10
68943;DHT22;60852;52.190;4.422;2022-12-10T17:36:49;4.30;85.09
68943;DHT22;60852;52.190;4.422;2022-12-10T17:39:18;4.33;85.13
68943;DHT22;60852;52.190;4.422;2022-12-10T17:41:44;4.34;85.14
68943;DHT22;60852;52.190;4.422;2022-12-10T17:44:09;4.35;85.23
68943;DHT22;60852;52.190;4.422;2022-12-10T17:46:35;4.38;85.27
68943;DHT22;60852;52.190;4.422;2022-12-10T17:49:00;4.37;84.87
68943;DHT22;60852;52.190;4.422;2022-12-10T17:51:27;4.31;84.80
68943;DHT22;60852;52.190;4.422;2022-12-10T17:53:53;4.27;84.73
68943;DHT22;60852;52.190;4.422;2022-12-10T17:56:21;4.20;84.81
68943;DHT22;60852;52.190;4.422;2022-12-10T17:58:49;4.16;84.82
68943;DHT22;60852;52.190;4.422;2022-12-10T18:01:17;4.11;84.97
68943;DHT22;60852;52.190;4.422;2022-12-10T18:03:43;4.08;85.05
68943;DHT22;60852;52.190;4.422;2022-12-10T18:06:19;4.08;85.02
68943;DHT22;60852;52.190;4.422;2022-12-10T18:08:46;4.10;85.13